Time;durP1;ratioP1;P1;durP2;ratioP2;P2;SDS_P1;SDS_P2;PMS_P1;PMS_P2;Temp;Humidity;BMP_temperature;BMP_pressure;BME280_temperature;BME280_humidity;BME280_pressure;Samples;Min_cycle;Max_cycle;Signal;HPM_P1;HPM_P2
2022/05/30 00:02:10;;;;;;;10.32;2.08;;;;;;;7.96;100.00;154528.81;4991332;28;20037;-78
2022/05/30 00:04:37;;;;;;;10.68;2.40;;;;;;;8.16;100.00;154580.06;5010856;28;20116;-78
2022/05/30 00:07:06;;;;;;;19.45;2.00;;;;;;;8.23;100.00;154595.41;5005483;28;20033;-78
2022/05/30 00:09:33;;;;;;;11.07;1.90;;;;;;;8.24;100.00;154598.00;5022401;28;20036;-78
2022/05/30 00:12:00;;;;;;;13.55;2.10;;;;;;;8.18;100.00;154583.91;5007616;28;20438;-78
2022/05/30 00:14:26;;;;;;;6.93;1.70;;;;;;;8.08;100.00;154558.25;5001945;28;20061;-77
2022/05/30 00:16:51;;;;;;;13.25;2.33;;;;;;;8.03;100.00;154546.75;4984834;28;20059;-77
2022/05/30 00:19:17;;;;;;;12.55;2.08;;;;;;;8.02;100.00;154542.91;5005773;28;20033;-75
2022/05/30 00:21:44;;;;;;;12.27;2.28;;;;;;;8.02;100.00;154542.91;4987230;28;20037;-77
2022/05/30 00:24:10;;;;;;;12.77;2.35;;;;;;;8.07;100.00;154555.72;5032839;28;20112;-75
2022/05/30 00:26:37;;;;;;;16.40;2.25;;;;;;;8.22;100.00;154592.88;5015924;28;20120;-78
2022/05/30 00:29:04;;;;;;;9.60;1.90;;;;;;;8.13;100.00;154572.34;5015001;28;20084;-77
2022/05/30 00:31:30;;;;;;;15.30;2.22;;;;;;;8.10;100.00;154564.69;5005988;28;20183;-77
2022/05/30 00:33:56;;;;;;;17.75;2.22;;;;;;;8.10;100.00;154564.69;5010347;28;20144;-78
2022/05/30 00:36:21;;;;;;;8.93;2.08;;;;;;;8.01;100.00;154540.38;4998515;28;20597;-78
2022/05/30 00:38:47;;;;;;;10.50;1.98;;;;;;;8.03;100.00;154546.75;4996398;28;20065;-77
2022/05/30 00:41:14;;;;;;;14.18;2.33;;;;;;;7.91;100.00;154516.00;5027297;28;20037;-78
2022/05/30 00:43:44;;;;;;;11.10;2.20;;;;;;;7.97;100.00;154532.66;5019748;28;20410;-79
2022/05/30 00:46:15;;;;;;;12.10;2.00;;;;;;;8.01;100.00;154541.63;5020627;28;20783;-77
2022/05/30 00:48:53;;;;;;;13.35;1.98;;;;;;;7.95;100.00;154526.28;4991333;28;20041;-77
2022/05/30 00:51:24;;;;;;;11.35;2.80;;;;;;;8.04;100.00;154548.03;4997204;28;20033;-78
2022/05/30 00:53:52;;;;;;;7.65;1.85;;;;;;;7.99;100.00;154536.53;5023962;28;20068;-77
2022/05/30 00:56:18;;;;;;;7.82;2.25;;;;;;;7.97;100.00;154532.66;5004718;28;20109;-76
2022/05/30 00:58:48;;;;;;;15.55;2.08;;;;;;;7.95;100.00;154526.28;5034403;28;20030;-75
2022/05/30 01:01:15;;;;;;;12.05;2.13;;;;;;;8.05;100.00;154551.88;5062519;28;20051;-78
2022/05/30 01:06:37;;;;;;;12.25;2.33;;;;;;;7.97;100.00;154532.66;5045693;28;20026;-78
2022/05/30 01:09:07;;;;;;;8.73;1.63;;;;;;;7.96;100.00;154528.81;5040365;28;20037;-78
2022/05/30 01:12:07;;;;;;;10.65;2.10;;;;;;;7.93;100.00;154521.13;5031706;28;20329;-76
2022/05/30 01:14:38;;;;;;;13.80;2.20;;;;;;;7.88;100.00;154509.63;5004073;28;20017;-76
2022/05/30 01:17:13;;;;;;;11.95;2.03;;;;;;;7.96;100.00;154528.81;5032285;28;20037;-78
2022/05/30 01:19:48;;;;;;;11.65;2.03;;;;;;;7.93;100.00;154521.13;5032681;28;20028;-76
2022/05/30 01:22:32;;;;;;;13.25;1.95;;;;;;;7.88;100.00;154508.34;5030458;28;20063;-76
2022/05/30 01:25:18;;;;;;;10.70;1.88;;;;;;;7.90;100.00;154513.47;5018981;28;20064;-77
2022/05/30 01:28:10;;;;;;;14.48;2.00;;;;;;;7.85;100.00;154500.63;5032415;28;20120;-77
2022/05/30 01:30:41;;;;;;;10.25;1.83;;;;;;;7.80;100.00;154489.13;5046529;28;20032;-79
2022/05/30 01:33:07;;;;;;;8.73;1.70;;;;;;;7.78;100.00;154485.28;5012592;28;20041;-78
2022/05/30 01:35:33;;;;;;;9.88;2.13;;;;;;;7.90;100.00;154513.47;4994744;28;20049;-77
2022/05/30 01:38:04;;;;;;;15.50;1.90;;;;;;;7.77;100.00;154481.44;5008386;28;20033;-78
2022/05/30 01:40:32;;;;;;;14.75;1.85;;;;;;;7.91;100.00;154516.00;4998062;28;20080;-77
2022/05/30 01:42:58;;;;;;;10.35;2.25;;;;;;;7.83;100.00;154496.78;5015076;28;20600;-77
2022/05/30 01:45:25;;;;;;;13.43;1.95;;;;;;;7.75;100.00;154477.59;5023692;28;20029;-78
2022/05/30 01:47:53;;;;;;;11.30;1.80;;;;;;;7.71;100.00;154466.09;5001866;28;20538;-79
2022/05/30 01:50:22;;;;;;;10.75;2.08;;;;;;;7.69;100.00;154460.97;5014142;28;20071;-78
2022/05/30 01:52:48;;;;;;;10.75;1.77;;;;;;;7.74;100.00;154475.06;5012278;28;20159;-77
2022/05/30 01:55:22;;;;;;;10.63;2.28;;;;;;;7.68;100.00;154459.66;5012838;28;20047;-77
2022/05/30 01:57:58;;;;;;;10.38;2.28;;;;;;;7.60;100.00;154440.44;5011781;28;21595;-77
2022/05/30 02:00:29;;;;;;;8.68;1.83;;;;;;;7.63;100.00;154446.88;5036861;28;20040;-79
2022/05/30 02:02:55;;;;;;;11.27;2.30;;;;;;;7.50;100.00;154414.84;5009772;28;20033;-79
2022/05/30 02:05:20;;;;;;;15.98;2.20;;;;;;;7.52;100.00;154419.97;5011228;28;20093;-79
2022/05/30 02:07:46;;;;;;;14.68;2.00;;;;;;;7.55;100.00;154427.69;5006945;28;20048;-78
2022/05/30 02:10:17;;;;;;;8.48;1.83;;;;;;;7.58;100.00;154434.06;5013917;28;20138;-76
2022/05/30 02:12:43;;;;;;;8.63;1.52;;;;;;;7.58;100.00;154434.06;5021748;28;20661;-79
2022/05/30 02:15:18;;;;;;;7.63;1.50;;;;;;;7.56;100.00;154428.94;4999562;28;20044;-77
2022/05/30 02:17:47;;;;;;;8.90;1.90;;;;;;;7.53;100.00;154422.50;4995160;28;20502;-78
2022/05/30 02:20:13;;;;;;;8.65;1.75;;;;;;;7.51;100.00;154417.41;4997807;28;20132;-77
2022/05/30 02:22:38;;;;;;;10.55;2.22;;;;;;;7.53;100.00;154422.50;5026790;28;20043;-77
2022/05/30 02:25:05;;;;;;;12.80;2.10;;;;;;;7.49;100.00;154411.00;4998405;28;20561;-76
2022/05/30 02:27:31;;;;;;;8.45;1.65;;;;;;;7.43;100.00;154395.66;5036790;28;20075;-77
2022/05/30 02:29:57;;;;;;;10.90;1.70;;;;;;;7.43;100.00;154395.66;5012139;28;20083;-78
2022/05/30 02:32:24;;;;;;;9.77;1.63;;;;;;;7.46;100.00;154404.63;5012632;28;20037;-77
2022/05/30 02:37:35;;;;;;;10.10;2.20;;;;;;;7.51;100.00;154417.41;5011908;28;20052;-77
2022/05/30 02:40:30;;;;;;;10.32;2.17;;;;;;;7.48;100.00;154408.44;5011442;28;20036;-78
2022/05/30 02:43:14;;;;;;;8.18;2.08;;;;;;;7.49;100.00;154411.00;5036594;28;20040;-78
2022/05/30 02:45:41;;;;;;;15.13;2.60;;;;;;;7.46;100.00;154404.63;5009426;28;20033;-78
2022/05/30 02:48:08;;;;;;;11.68;2.17;;;;;;;7.62;100.00;154444.28;5005289;28;20041;-77
2022/05/30 02:50:34;;;;;;;17.48;2.45;;;;;;;7.54;100.00;154425.09;5005469;28;20627;-78
2022/05/30 02:53:02;;;;;;;13.35;2.58;;;;;;;7.55;100.00;154426.34;5009647;28;20459;-78
2022/05/30 02:55:54;;;;;;;9.80;2.38;;;;;;;7.64;100.00;154449.41;5034733;28;20041;-77
2022/05/30 02:58:19;;;;;;;10.02;2.00;;;;;;;7.63;100.00;154446.88;4994804;28;20099;-78
2022/05/30 03:00:45;;;;;;;12.65;2.00;;;;;;;7.55;100.00;154427.69;5013238;28;20041;-77
2022/05/30 03:03:11;;;;;;;16.05;2.42;;;;;;;7.51;100.00;154416.13;5003244;28;20061;-78
2022/05/30 03:05:38;;;;;;;11.55;2.20;;;;;;;7.56;100.00;154428.94;5007860;28;20542;-78
2022/05/30 03:08:07;;;;;;;11.00;2.25;;;;;;;7.56;100.00;154430.22;5024280;28;20523;-78
2022/05/30 03:10:52;;;;;;;14.18;2.70;;;;;;;7.61;100.00;154441.75;5017080;28;20041;-78
2022/05/30 03:13:18;;;;;;;12.82;2.70;;;;;;;7.58;100.00;154435.31;5017878;28;20491;-77
2022/05/30 03:15:44;;;;;;;11.15;2.78;;;;;;;7.57;100.00;154432.78;5018441;28;20135;-78
2022/05/30 03:18:09;;;;;;;13.52;2.30;;;;;;;7.56;100.00;154428.94;5010189;28;20128;-79
2022/05/30 03:20:36;;;;;;;9.05;2.60;;;;;;;7.53;100.00;154422.50;4994747;28;20495;-78
2022/05/30 03:23:03;;;;;;;14.07;3.25;;;;;;;7.50;100.00;154414.84;4981223;28;20240;-79
2022/05/30 03:25:29;;;;;;;13.45;3.03;;;;;;;7.60;100.00;154439.19;5032800;28;20021;-78
2022/05/30 03:27:58;;;;;;;11.15;2.58;;;;;;;7.65;100.00;154450.69;5007899;28;20045;-77
2022/05/30 03:30:24;;;;;;;9.95;2.13;;;;;;;7.62;100.00;154444.28;5019628;28;20043;-77
2022/05/30 03:32:50;;;;;;;8.40;2.40;;;;;;;7.56;100.00;154430.22;5022558;28;20769;-77
2022/05/30 03:35:17;;;;;;;16.23;2.80;;;;;;;7.51;100.00;154416.13;4989343;28;20031;-79
2022/05/30 03:37:51;;;;;;;12.32;2.92;;;;;;;7.54;100.00;154423.81;4981366;28;20508;-79
2022/05/30 03:40:49;;;;;;;15.70;3.33;;;;;;;7.58;100.00;154434.06;5014109;28;20609;-77
2022/05/30 03:43:34;;;;;;;9.52;3.13;;;;;;;7.62;100.00;154444.28;5027154;28;20033;-77
2022/05/30 03:45:59;;;;;;;13.90;2.78;;;;;;;7.64;100.00;154448.16;5020577;28;20495;-78
2022/05/30 03:48:25;;;;;;;13.20;3.20;;;;;;;7.61;100.00;154441.75;4987889;28;20052;-77
2022/05/30 03:50:50;;;;;;;15.75;2.95;;;;;;;7.70;100.00;154463.50;4992849;28;20033;-78
2022/05/30 03:53:16;;;;;;;10.45;3.10;;;;;;;7.69;100.00;154460.97;5001945;28;20083;-78
2022/05/30 03:55:44;;;;;;;8.70;2.63;;;;;;;7.66;100.00;154453.25;5019412;28;20110;-76
2022/05/30 03:58:13;;;;;;;13.18;3.03;;;;;;;7.70;100.00;154463.50;5008234;28;20045;-77
2022/05/30 04:00:42;;;;;;;9.55;2.90;;;;;;;7.68;100.00;154458.38;5022539;28;20814;-77
2022/05/30 04:03:08;;;;;;;11.90;3.15;;;;;;;7.71;100.00;154467.34;5009243;28;20382;-78
2022/05/30 04:05:34;;;;;;;10.65;3.50;;;;;;;7.74;100.00;154475.06;5009905;28;20043;-77
2022/05/30 04:08:00;;;;;;;11.68;3.50;;;;;;;7.78;100.00;154485.28;5005444;28;20407;-77
2022/05/30 04:10:35;;;;;;;10.57;3.30;;;;;;;7.76;100.00;154478.84;5021804;28;20122;-78
2022/05/30 04:13:20;;;;;;;11.50;3.15;;;;;;;7.86;100.00;154503.22;5037586;28;20035;-78
2022/05/30 04:16:14;;;;;;;11.65;2.88;;;;;;;7.85;100.00;154501.91;5000214;28;20076;-78
2022/05/30 04:18:40;;;;;;;10.43;3.45;;;;;;;7.94;100.00;154523.69;4999465;28;20060;-77
2022/05/30 04:21:07;;;;;;;9.73;2.97;;;;;;;7.95;100.00;154526.28;4998334;28;20037;-78
2022/05/30 04:23:33;;;;;;;14.63;3.13;;;;;;;7.97;100.00;154532.66;5023421;28;20052;-77
2022/05/30 04:26:05;;;;;;;15.07;3.15;;;;;;;8.04;100.00;154549.28;5028838;28;20033;-76
2022/05/30 04:28:31;;;;;;;13.00;2.80;;;;;;;8.06;100.00;154554.47;5011431;28;20136;-77
2022/05/30 04:31:31;;;;;;;13.00;2.70;;;;;;;8.07;100.00;154555.72;5015575;28;20132;-77
2022/05/30 04:33:57;;;;;;;13.10;2.75;;;;;;;8.15;100.00;154577.47;5010216;28;20159;-77
2022/05/30 04:36:23;;;;;;;10.35;2.70;;;;;;;8.17;100.00;154581.31;5010903;28;20415;-77
2022/05/30 04:38:52;;;;;;;10.73;2.65;;;;;;;8.16;100.00;154578.78;5005932;28;20037;-77
2022/05/30 04:41:36;;;;;;;10.90;2.40;;;;;;;8.16;100.00;154578.78;5012110;28;20701;-77
2022/05/30 04:44:22;;;;;;;9.23;2.35;;;;;;;8.19;100.00;154586.44;5039353;28;20500;-76
2022/05/30 04:47:04;;;;;;;11.07;2.40;;;;;;;8.25;100.00;154601.84;5017378;28;20160;-76
2022/05/30 04:49:30;;;;;;;8.70;2.60;;;;;;;8.19;100.00;154587.75;5021061;28;20037;-77
2022/05/30 04:51:56;;;;;;;8.73;2.42;;;;;;;8.19;100.00;154587.75;5008128;28;20052;-78
2022/05/30 04:54:22;;;;;;;10.25;2.45;;;;;;;8.34;100.00;154623.59;5001568;28;20736;-76
2022/05/30 04:57:00;;;;;;;11.48;2.20;;;;;;;8.35;100.00;154626.19;5005647;28;20116;-78
2022/05/30 04:59:27;;;;;;;13.95;2.17;;;;;;;8.31;100.00;154615.94;5012345;28;20406;-78
2022/05/30 05:02:00;;;;;;;11.52;2.83;;;;;;;8.43;100.00;154645.44;5012570;28;20480;-79
2022/05/30 05:04:27;;;;;;;13.90;2.65;;;;;;;8.45;100.00;154651.81;5018096;28;20068;-76
2022/05/30 05:06:53;;;;;;;15.02;2.88;;;;;;;8.45;100.00;154651.81;5026874;28;20060;-76
2022/05/30 05:09:28;;;;;;;11.32;2.80;;;;;;;8.46;100.00;154653.16;5009322;28;20080;-75
2022/05/30 05:11:56;;;;;;;11.27;2.95;;;;;;;8.55;100.00;154677.47;5025979;28;20127;-76
2022/05/30 05:14:40;;;;;;;14.80;2.75;;;;;;;8.61;100.00;154691.56;5024957;28;20064;-77
2022/05/30 05:17:24;;;;;;;14.23;2.53;;;;;;;8.57;100.00;154682.59;5026306;28;20033;-76
2022/05/30 05:19:49;;;;;;;13.90;2.95;;;;;;;8.61;100.00;154691.56;5009094;28;20041;-76
2022/05/30 05:22:15;;;;;;;14.82;2.65;;;;;;;8.70;100.00;154714.66;4994670;28;20059;-77
2022/05/30 05:24:42;;;;;;;12.77;2.17;;;;;;;8.85;100.00;154751.75;5002727;28;20034;-77
2022/05/30 05:27:24;;;;;;;12.05;2.67;;;;;;;8.85;100.00;154750.50;5011465;28;20040;-77
2022/05/30 05:29:55;;;;;;;10.80;2.63;;;;;;;8.92;100.00;154769.72;5022139;28;20067;-77
2022/05/30 05:32:21;;;;;;;15.35;3.30;;;;;;;8.90;100.00;154764.59;5016035;28;20597;-78
2022/05/30 05:34:50;;;;;;;13.38;2.47;;;;;;;8.93;100.00;154772.28;5011887;28;20510;-77
2022/05/30 05:37:17;;;;;;;11.15;2.40;;;;;;;8.98;100.00;154783.81;5000261;28;20041;-76
2022/05/30 05:39:49;;;;;;;11.88;2.95;;;;;;;9.07;100.00;154806.88;5009701;28;20403;-78
2022/05/30 05:42:15;;;;;;;17.77;2.95;;;;;;;9.15;100.00;154827.44;5013219;28;20125;-78
2022/05/30 05:44:41;;;;;;;12.85;3.03;;;;;;;9.20;100.00;154838.94;5024772;28;20060;-78
2022/05/30 05:47:07;;;;;;;15.07;2.80;;;;;;;9.22;100.00;154842.78;5011668;28;20569;-77
2022/05/30 05:49:33;;;;;;;8.85;3.30;;;;;;;9.26;100.00;154854.31;5022094;28;20124;-77
2022/05/30 05:51:59;;;;;;;9.20;3.00;;;;;;;9.28;100.00;154858.16;5021556;28;20438;-77
2022/05/30 05:54:26;;;;;;;9.38;2.90;;;;;;;9.29;100.00;154860.75;4982968;28;20128;-77
2022/05/30 05:56:53;;;;;;;10.93;2.92;;;;;;;9.36;100.00;154878.66;5020676;28;20030;-77
2022/05/30 05:59:30;;;;;;;12.35;3.25;;;;;;;9.43;100.00;154895.34;5024717;28;20103;-77
2022/05/30 06:01:56;;;;;;;11.65;3.28;;;;;;;9.38;100.00;154883.81;5009797;28;20041;-76
2022/05/30 06:04:23;;;;;;;11.10;3.25;;;;;;;9.20;100.00;154838.94;5019593;28;20912;-77
2022/05/30 06:07:12;;;;;;;11.13;3.28;;;;;;;9.31;100.00;154865.88;5029483;28;20076;-78
2022/05/30 06:09:46;;;;;;;10.48;3.20;;;;;;;9.29;100.00;154862.03;5023372;28;20037;-77
2022/05/30 06:12:18;;;;;;;13.38;3.40;;;;;;;9.23;100.00;154845.34;4992946;28;20033;-78
2022/05/30 06:14:44;;;;;;;12.30;3.13;;;;;;;9.20;100.00;154837.66;5023356;28;20105;-77
2022/05/30 06:17:10;;;;;;;10.07;3.20;;;;;;;9.23;100.00;154845.34;4994999;28;20128;-77
2022/05/30 06:19:35;;;;;;;11.75;4.40;;;;;;;9.27;100.00;154855.63;5027177;28;20122;-77
2022/05/30 06:22:01;;;;;;;11.27;3.53;;;;;;;9.26;100.00;154853.03;5006877;28;20475;-78
2022/05/30 06:24:31;;;;;;;7.35;3.47;;;;;;;9.28;100.00;154859.44;4997240;28;20064;-77
2022/05/30 06:27:25;;;;;;;12.73;3.22;;;;;;;9.34;100.00;154874.84;4956024;28;20063;-77
2022/05/30 06:30:07;;;;;;;10.57;3.35;;;;;;;9.41;100.00;154890.22;5010889;28;20039;-77
2022/05/30 06:32:32;;;;;;;12.35;3.90;;;;;;;9.49;100.00;154910.72;5021489;28;20033;-78
2022/05/30 06:35:03;;;;;;;12.30;3.92;;;;;;;9.50;100.00;154914.56;5011559;28;20029;-76
2022/05/30 06:37:29;;;;;;;15.13;4.03;;;;;;;9.51;100.00;154915.84;5026915;28;20087;-77
2022/05/30 06:39:56;;;;;;;11.60;3.35;;;;;;;9.48;100.00;154908.19;5006827;28;20402;-77
2022/05/30 06:42:38;;;;;;;11.27;3.88;;;;;;;9.45;100.00;154901.72;5000117;28;20041;-76
2022/05/30 06:45:22;;;;;;;10.90;3.35;;;;;;;9.47;100.00;154906.84;5019350;28;20036;-76
2022/05/30 06:48:06;;;;;;;7.55;2.78;;;;;;;9.42;100.00;154894.06;5014497;28;20029;-77
2022/05/30 06:50:47;;;;;;;14.27;2.63;;;;;;;9.50;100.00;154914.56;5029670;28;20483;-76
2022/05/30 06:53:13;;;;;;;10.43;2.78;;;;;;;9.54;100.00;154924.81;5008178;28;20044;-76
2022/05/30 06:55:39;;;;;;;9.18;2.70;;;;;;;9.55;100.00;154926.13;5033961;28;20107;-77
2022/05/30 06:58:13;;;;;;;11.73;2.15;;;;;;;9.68;100.00;154959.47;5024937;28;20553;-77
2022/05/30 07:00:44;;;;;;;12.20;3.10;;;;;;;9.71;100.00;154965.84;5006932;28;20081;-76
2022/05/30 07:03:22;;;;;;;6.47;2.70;;;;;;;9.82;100.00;154992.81;5024879;28;20045;-76
2022/05/30 07:06:26;;;;;;;11.95;3.25;;;;;;;9.92;100.00;155019.69;5021741;28;20033;-77
2022/05/30 07:09:10;;;;;;;12.05;3.28;;;;;;;9.91;100.00;155017.16;5016153;28;20067;-78
2022/05/30 07:11:46;;;;;;;11.48;3.13;;;;;;;9.90;100.00;155014.56;5021684;28;20037;-76
2022/05/30 07:14:16;;;;;;;13.57;3.28;;;;;;;9.93;100.00;155021.00;5010709;28;20045;-78
2022/05/30 07:16:43;;;;;;;13.80;3.58;;;;;;;9.96;100.00;155027.41;5024004;28;20025;-77
2022/05/30 07:19:09;;;;;;;11.43;3.38;;;;;;;9.93;100.00;155021.00;5027052;28;20051;-80
2022/05/30 07:21:41;;;;;;;9.27;3.60;;;;;;;9.92;100.00;155019.69;5044637;28;20111;-79
2022/05/30 07:24:25;;;;;;;12.13;2.90;;;;;;;9.92;100.00;155018.44;5029864;28;20499;-79
2022/05/30 07:27:10;;;;;;;7.78;2.67;;;;;;;9.94;100.00;155024.88;5039191;28;20044;-79
2022/05/30 07:29:54;;;;;;;9.40;2.50;;;;;;;9.95;100.00;155026.13;5012872;28;20025;-78
2022/05/30 07:32:46;;;;;;;7.53;2.75;;;;;;;10.07;100.00;155055.63;5024390;28;20037;-78
2022/05/30 07:35:30;;;;;;;10.18;2.70;;;;;;;10.10;100.00;155064.59;5024836;28;20029;-77
2022/05/30 07:37:56;;;;;;;8.48;2.50;;;;;;;10.22;100.00;155092.81;5036914;28;20051;-77
2022/05/30 07:40:35;;;;;;;10.00;2.45;;;;;;;10.45;100.00;155150.59;5022777;28;20041;-77
2022/05/30 07:43:16;;;;;;;10.13;2.45;;;;;;;10.81;100.00;155240.38;5023505;28;20055;-77
2022/05/30 07:46:14;;;;;;;7.80;1.80;;;;;;;11.23;100.00;155345.66;5008304;28;20045;-78
2022/05/30 07:49:00;;;;;;;11.85;2.15;;;;;;;11.52;100.00;155418.78;5013000;28;20064;-80
2022/05/30 07:51:58;;;;;;;6.88;1.90;;;;;;;11.69;100.00;155462.44;4999457;28;20048;-80
2022/05/30 07:54:29;;;;;;;8.80;1.73;;;;;;;11.92;100.00;155517.69;4991741;28;20041;-78
2022/05/30 07:56:59;;;;;;;13.00;2.08;;;;;;;11.98;100.00;155534.41;5003141;28;20423;-78
2022/05/30 07:59:25;;;;;;;5.80;1.48;;;;;;;11.91;100.00;155516.44;5011826;28;20047;-78
2022/05/30 08:01:51;;;;;;;7.93;1.50;;;;;;;12.20;100.00;155588.31;5025991;28;20057;-79
2022/05/30 08:04:17;;;;;;;4.30;1.10;;;;;;;12.12;100.00;155567.78;5009999;28;20167;-79
2022/05/30 08:06:45;;;;;;;3.88;1.20;;;;;;;12.35;100.00;155625.56;5012299;28;20045;-80
2022/05/30 08:09:29;;;;;;;5.88;1.48;;;;;;;12.56;100.00;155678.22;5013504;28;20043;-80
2022/05/30 08:12:04;;;;;;;4.75;1.30;;;;;;;12.59;100.00;155685.97;5026045;28;20029;-80
2022/05/30 08:14:48;;;;;;;8.43;1.48;;;;;;;12.38;100.00;155634.56;5007558;28;20028;-78
2022/05/30 08:17:13;;;;;;;8.45;1.45;;;;;;;12.16;100.00;155579.34;4995435;28;20041;-79
2022/05/30 08:19:40;;;;;;;7.47;1.33;;;;;;;11.84;100.00;155499.66;5015305;28;20063;-79
2022/05/30 08:22:10;;;;;;;7.35;2.75;;;;;;;11.63;100.00;155447.03;5020539;28;20046;-79
2022/05/30 08:24:43;;;;;;;4.95;1.20;;;;;;;11.44;100.00;155399.53;5013778;28;20048;-79
2022/05/30 08:27:16;;;;;;;6.75;1.42;;;;;;;11.19;100.00;155336.66;5009513;28;21729;-79
2022/05/30 08:29:47;;;;;;;7.28;1.73;;;;;;;11.09;100.00;155312.28;4996874;28;20219;-80
2022/05/30 08:32:13;;;;;;;5.32;1.30;;;;;;;10.95;100.00;155276.34;5008142;28;20124;-77
2022/05/30 08:34:59;;;;;;;6.78;1.70;;;;;;;10.80;100.00;155239.13;5033506;28;20108;-77
2022/05/30 08:37:30;;;;;;;8.50;1.30;;;;;;;10.77;100.00;155231.41;5003521;28;20026;-78
2022/05/30 08:43:13;;;;;;;5.10;1.48;;;;;;;10.84;100.00;155249.38;5020576;28;20040;-79
2022/05/30 08:45:53;;;;;;;7.03;1.80;;;;;;;10.89;100.00;155262.22;5019096;28;20037;-79
2022/05/30 08:48:41;;;;;;;6.18;1.35;;;;;;;10.90;100.00;155263.50;5005666;28;20324;-79
2022/05/30 08:51:36;;;;;;;4.80;1.80;;;;;;;10.98;100.00;155284.06;5004801;28;20052;-81
2022/05/30 08:54:29;;;;;;;8.13;1.42;;;;;;;10.99;100.00;155285.31;5005506;28;20086;-80
2022/05/30 08:57:32;;;;;;;7.38;1.40;;;;;;;10.91;100.00;155266.06;4987551;28;20072;-80
2022/05/30 09:00:14;;;;;;;5.20;1.35;;;;;;;10.99;100.00;155286.59;5025361;28;20037;-80
2022/05/30 09:03:08;;;;;;;6.20;1.20;;;;;;;10.98;100.00;155282.72;5010241;28;20059;-77
2022/05/30 09:05:41;;;;;;;8.60;1.50;;;;;;;10.85;100.00;155250.66;5010260;28;20067;-78
2022/05/30 09:08:09;;;;;;;;;;;;;;;10.91;100.00;155266.06;5014183;28;20037;-79
2022/05/30 09:10:53;;;;;;;7.25;1.58;;;;;;;10.74;100.00;155223.72;5002914;28;19959;-80
2022/05/30 09:13:24;;;;;;;9.70;1.52;;;;;;;10.70;100.00;155213.47;5007958;28;20034;-77
2022/05/30 09:16:28;;;;;;;5.45;1.20;;;;;;;10.71;100.00;155216.03;5033618;28;20045;-79
2022/05/30 09:18:55;;;;;;;9.07;1.50;;;;;;;10.76;100.00;155228.88;5008946;28;20032;-79
2022/05/30 09:21:22;;;;;;;5.85;1.27;;;;;;;10.86;100.00;155254.50;5020384;28;20032;-77
2022/05/30 09:23:49;;;;;;;5.40;1.13;;;;;;;10.98;100.00;155284.06;4986782;28;20033;-80
2022/05/30 09:26:22;;;;;;;5.57;1.20;;;;;;;11.09;100.00;155312.28;4994160;28;20503;-76
2022/05/30 09:29:11;;;;;;;9.00;1.23;;;;;;;11.13;100.00;155319.97;5008919;28;20157;-78
2022/05/30 09:32:07;;;;;;;3.58;1.17;;;;;;;11.16;100.00;155327.66;5015402;28;20049;-77
2022/05/30 09:35:29;;;;;;;5.07;1.10;;;;;;;10.94;100.00;155273.75;5004399;28;20140;-80
2022/05/30 09:38:21;;;;;;;5.70;1.10;;;;;;;10.82;100.00;155244.25;5005547;28;20041;-78
2022/05/30 09:41:06;;;;;;;13.00;1.67;;;;;;;10.56;100.00;155178.81;4999490;28;20075;-76
2022/05/30 09:44:04;;;;;;;4.13;1.10;;;;;;;10.45;100.00;155151.91;5021742;28;20032;-79
2022/05/30 09:46:37;;;;;;;7.18;1.25;;;;;;;10.51;100.00;155167.28;5019488;28;20033;-77
2022/05/30 09:49:24;;;;;;;5.32;0.98;;;;;;;10.62;100.00;155194.19;5013943;28;20049;-77
2022/05/30 09:51:56;;;;;;;5.55;1.23;;;;;;;10.72;100.00;155218.59;5023445;28;20080;-77
2022/05/30 09:54:25;;;;;;;8.68;1.08;;;;;;;10.90;100.00;155263.50;5006667;28;20033;-76
2022/05/30 09:57:09;;;;;;;3.03;1.02;;;;;;;11.05;100.00;155300.72;4995849;28;20108;-77
2022/05/30 09:59:56;;;;;;;;;;;;;;;11.22;100.00;155344.34;5028548;28;20041;-79
2022/05/30 10:02:31;;;;;;;4.07;1.00;;;;;;;11.40;100.00;155388.00;5012151;28;19922;-79
2022/05/30 10:05:02;;;;;;;5.47;0.93;;;;;;;11.51;100.00;155416.25;5004892;28;20553;-78
2022/05/30 10:07:32;;;;;;;3.47;0.90;;;;;;;11.58;99.40;155434.19;5006373;28;20041;-78
2022/05/30 10:10:20;;;;;;;7.63;1.20;;;;;;;11.83;96.91;155497.13;4993723;28;20045;-77
2022/05/30 10:12:54;;;;;;;4.78;1.10;;;;;;;11.85;98.08;155502.25;5009119;28;20044;-77
2022/05/30 10:15:38;;;;;;;6.25;1.30;;;;;;;11.78;98.44;155484.28;5004805;28;20156;-78
2022/05/30 10:18:12;;;;;;;8.60;1.00;;;;;;;11.80;99.15;155488.13;4993228;28;20065;-78
2022/05/30 10:21:00;;;;;;;5.00;0.98;;;;;;;11.82;97.55;155493.25;5005350;28;20045;-78
2022/05/30 10:30:36;;;;;;;4.00;0.80;;;;;;;11.97;97.46;155530.56;5041214;28;20928;-79
2022/05/30 10:34:04;;;;;;;2.15;0.40;;;;;;;11.65;90.72;155450.91;5025784;28;20037;-79
2022/05/30 10:36:44;;;;;;;3.05;0.60;;;;;;;11.44;96.24;155398.25;4996913;28;20041;-80
2022/05/30 10:39:22;;;;;;;3.00;0.60;;;;;;;11.45;92.74;155400.81;4995255;28;20443;-78
2022/05/30 10:42:04;;;;;;;0.90;0.32;;;;;;;11.26;98.86;155354.63;5008257;28;20048;-78
2022/05/30 10:44:35;;;;;;;4.80;0.80;;;;;;;11.07;95.52;155307.09;5005625;28;20483;-79
2022/05/30 10:47:28;;;;;;;4.22;0.70;;;;;;;11.00;96.13;155287.88;5035355;28;20853;-78
2022/05/30 10:50:06;;;;;;;3.38;0.60;;;;;;;10.96;100.00;155277.59;5033772;28;20411;-79
2022/05/30 10:52:54;;;;;;;3.25;0.60;;;;;;;10.88;100.00;155258.34;5017134;28;20177;-78
2022/05/30 10:55:35;;;;;;;4.85;0.73;;;;;;;10.91;100.00;155266.06;5012291;28;20041;-79
2022/05/30 10:58:02;;;;;;;1.80;0.38;;;;;;;10.84;100.00;155248.09;5009047;28;20040;-78
2022/05/30 11:00:34;;;;;;;3.17;0.73;;;;;;;10.73;100.00;155221.16;5001659;28;20111;-78
2022/05/30 11:03:15;;;;;;;5.07;0.50;;;;;;;10.76;99.41;155227.59;5000477;28;20038;-78
2022/05/30 11:05:57;;;;;;;7.07;1.02;;;;;;;10.65;100.00;155201.91;4986813;28;20363;-77
2022/05/30 11:08:35;;;;;;;3.03;0.30;;;;;;;10.62;100.00;155194.19;5005600;28;20052;-78
2022/05/30 11:11:06;;;;;;;2.15;0.70;;;;;;;10.78;100.00;155232.72;5016151;28;20539;-80
2022/05/30 11:13:42;;;;;;;1.80;0.50;;;;;;;10.83;100.00;155245.50;5004186;28;20049;-79
2022/05/30 11:16:43;;;;;;;2.58;0.60;;;;;;;10.89;100.00;155260.94;4991913;28;20120;-79
2022/05/30 11:19:42;;;;;;;2.47;0.60;;;;;;;11.05;100.00;155301.97;5016393;28;20034;-80
2022/05/30 11:22:30;;;;;;;3.38;0.43;;;;;;;11.25;100.00;155352.06;5014517;28;20029;-81
2022/05/30 11:24:56;;;;;;;2.38;0.60;;;;;;;11.41;100.00;155390.56;5018388;28;20045;-78
2022/05/30 11:27:35;;;;;;;5.03;1.10;;;;;;;11.65;99.98;155452.16;5007953;28;20041;-78
2022/05/30 11:30:23;;;;;;;1.85;0.50;;;;;;;11.84;100.00;155499.66;5024212;28;20040;-76
2022/05/30 11:33:19;;;;;;;3.08;0.63;;;;;;;12.12;100.00;155569.06;5017240;28;20825;-75
2022/05/30 11:36:03;;;;;;;3.65;0.80;;;;;;;12.41;96.27;155642.28;5008001;28;20529;-78
2022/05/30 11:39:04;;;;;;;4.80;0.73;;;;;;;12.68;96.69;155709.09;5008495;28;20121;-78
2022/05/30 11:41:48;;;;;;;3.65;1.05;;;;;;;12.95;88.80;155775.88;4985198;28;20047;-78
2022/05/30 11:44:49;;;;;;;3.58;0.85;;;;;;;13.17;87.97;155831.16;5018016;28;20051;-79
2022/05/30 11:47:41;;;;;;;1.17;0.55;;;;;;;13.42;86.26;155895.41;5019780;28;20042;-79
2022/05/30 11:50:33;;;;;;;4.13;0.73;;;;;;;13.63;89.12;155948.09;5018535;28;20124;-78
2022/05/30 11:53:20;;;;;;;3.47;0.68;;;;;;;13.46;90.78;155904.44;5015746;28;20056;-77
2022/05/30 11:56:09;;;;;;;4.45;0.65;;;;;;;13.04;90.76;155800.28;5007159;28;20092;-78
2022/05/30 11:58:41;;;;;;;6.18;0.70;;;;;;;12.71;98.45;155716.75;5008461;28;20067;-78
2022/05/30 12:01:08;;;;;;;2.08;0.63;;;;;;;12.70;96.65;155714.22;4991237;28;20060;-78
2022/05/30 12:04:02;;;;;;;3.40;0.68;;;;;;;12.86;95.37;155754.03;5001340;28;20029;-80
2022/05/30 12:06:40;;;;;;;2.50;0.50;;;;;;;12.93;96.05;155770.75;5028365;28;20060;-79
2022/05/30 12:09:30;;;;;;;3.03;0.50;;;;;;;12.98;87.24;155784.88;5020630;28;20037;-79
2022/05/30 12:12:06;;;;;;;5.40;0.55;;;;;;;13.13;89.52;155820.81;5001401;28;20044;-78